sensor_id;sensor_type;location;lat;lon;timestamp;P1;P2;P0
67714;PMS7003;54505;44.022;20.458;2022-07-29T00:01:50;33.50;28.00;21.50
67714;PMS7003;54505;44.022;20.458;2022-07-29T00:04:18;29.00;27.00;20.00
67714;PMS7003;54505;44.022;20.458;2022-07-29T00:06:44;25.75;24.25;18.25
67714;PMS7003;54505;44.022;20.458;2022-07-29T00:09:09;28.25;26.00;18.25
67714;PMS7003;54505;44.022;20.458;2022-07-29T00:11:35;36.00;30.25;20.00
67714;PMS7003;54505;44.022;20.458;2022-07-29T00:14:00;34.25;31.25;22.00
67714;PMS7003;54505;44.022;20.458;2022-07-29T00:16:26;35.00;29.00;20.25
67714;PMS7003;54505;44.022;20.458;2022-07-29T00:18:52;31.50;29.75;22.00
67714;PMS7003;54505;44.022;20.458;2022-07-29T00:21:17;31.25;30.25;20.00
67714;PMS7003;54505;44.022;20.458;2022-07-29T00:23:43;31.75;29.50;20.75
67714;PMS7003;54505;44.022;20.458;2022-07-29T00:26:08;31.00;30.00;20.25
67714;PMS7003;54505;44.022;20.458;2022-07-29T00:28:34;17.00;15.25;10.50
67714;PMS7003;54505;44.022;20.458;2022-07-29T00:30:59;29.50;29.50;20.75
67714;PMS7003;54505;44.022;20.458;2022-07-29T00:33:25;29.25;28.25;21.00
67714;PMS7003;54505;44.022;20.458;2022-07-29T00:35:51;33.75;31.00;22.00
67714;PMS7003;54505;44.022;20.458;2022-07-29T00:38:17;32.50;30.75;22.00
67714;PMS7003;54505;44.022;20.458;2022-07-29T00:40:43;30.50;27.25;20.00
67714;PMS7003;54505;44.022;20.458;2022-07-29T00:43:09;32.00;29.25;21.25
67714;PMS7003;54505;44.022;20.458;2022-07-29T00:45:35;29.25;27.50;19.25
67714;PMS7003;54505;44.022;20.458;2022-07-29T00:48:01;25.75;24.50;19.75
67714;PMS7003;54505;44.022;20.458;2022-07-29T00:50:28;25.75;24.25;19.50
67714;PMS7003;54505;44.022;20.458;2022-07-29T00:52:54;27.50;27.50;20.00
67714;PMS7003;54505;44.022;20.458;2022-07-29T00:55:20;27.50;27.50;19.50
67714;PMS7003;54505;44.022;20.458;2022-07-29T00:57:45;31.50;29.25;19.50
67714;PMS7003;54505;44.022;20.458;2022-07-29T01:00:13;28.00;27.00;19.00
67714;PMS7003;54505;44.022;20.458;2022-07-29T01:02:40;29.75;25.50;19.50
67714;PMS7003;54505;44.022;20.458;2022-07-29T01:05:06;28.00;28.00;19.50
67714;PMS7003;54505;44.022;20.458;2022-07-29T01:07:34;26.75;25.25;19.50
67714;PMS7003;54505;44.022;20.458;2022-07-29T01:10:03;30.75;28.50;20.00
67714;PMS7003;54505;44.022;20.458;2022-07-29T01:12:29;28.00;27.75;20.00
67714;PMS7003;54505;44.022;20.458;2022-07-29T01:14:58;32.00;29.50;20.50
67714;PMS7003;54505;44.022;20.458;2022-07-29T01:19:52;29.75;28.50;20.00
67714;PMS7003;54505;44.022;20.458;2022-07-29T01:30:09;32.75;30.00;23.00
67714;PMS7003;54505;44.022;20.458;2022-07-29T01:32:35;36.50;33.00;22.00
67714;PMS7003;54505;44.022;20.458;2022-07-29T01:37:39;35.50;29.75;22.00
67714;PMS7003;54505;44.022;20.458;2022-07-29T01:40:30;32.50;30.25;21.00
67714;PMS7003;54505;44.022;20.458;2022-07-29T01:42:57;32.50;30.50;20.75
67714;PMS7003;54505;44.022;20.458;2022-07-29T01:48:13;28.25;27.75;20.00
67714;PMS7003;54505;44.022;20.458;2022-07-29T01:50:47;28.50;27.75;20.25
67714;PMS7003;54505;44.022;20.458;2022-07-29T01:53:14;33.00;31.25;22.75
67714;PMS7003;54505;44.022;20.458;2022-07-29T01:55:42;31.00;30.00;21.25
67714;PMS7003;54505;44.022;20.458;2022-07-29T01:58:09;34.00;31.00;22.50
67714;PMS7003;54505;44.022;20.458;2022-07-29T02:00:36;30.25;29.00;21.25
67714;PMS7003;54505;44.022;20.458;2022-07-29T02:03:04;30.00;30.00;20.50
67714;PMS7003;54505;44.022;20.458;2022-07-29T02:05:30;32.25;29.25;19.50
67714;PMS7003;54505;44.022;20.458;2022-07-29T02:07:58;28.50;28.50;20.00
67714;PMS7003;54505;44.022;20.458;2022-07-29T02:10:26;33.25;30.25;22.00
67714;PMS7003;54505;44.022;20.458;2022-07-29T02:12:53;28.00;28.00;19.50
67714;PMS7003;54505;44.022;20.458;2022-07-29T02:15:20;32.50;28.50;21.00
67714;PMS7003;54505;44.022;20.458;2022-07-29T02:17:49;36.75;31.25;21.00
67714;PMS7003;54505;44.022;20.458;2022-07-29T02:20:16;30.00;28.25;21.00
67714;PMS7003;54505;44.022;20.458;2022-07-29T02:22:42;32.00;29.75;22.00
67714;PMS7003;54505;44.022;20.458;2022-07-29T02:25:09;31.50;30.50;21.00
67714;PMS7003;54505;44.022;20.458;2022-07-29T02:27:35;29.75;27.50;20.00
67714;PMS7003;54505;44.022;20.458;2022-07-29T02:30:03;33.00;30.50;21.75
67714;PMS7003;54505;44.022;20.458;2022-07-29T02:32:30;30.75;29.75;21.00
67714;PMS7003;54505;44.022;20.458;2022-07-29T02:34:56;38.25;31.25;22.25
67714;PMS7003;54505;44.022;20.458;2022-07-29T02:37:23;39.75;34.75;24.75
67714;PMS7003;54505;44.022;20.458;2022-07-29T02:39:50;32.25;31.25;22.00
67714;PMS7003;54505;44.022;20.458;2022-07-29T02:42:17;28.75;28.75;21.00
67714;PMS7003;54505;44.022;20.458;2022-07-29T02:44:44;33.00;30.75;21.50
67714;PMS7003;54505;44.022;20.458;2022-07-29T02:49:59;37.50;33.25;20.75
67714;PMS7003;54505;44.022;20.458;2022-07-29T02:52:31;32.50;31.50;21.50
67714;PMS7003;54505;44.022;20.458;2022-07-29T02:55:11;29.75;29.00;20.00
67714;PMS7003;54505;44.022;20.458;2022-07-29T02:57:44;31.75;28.75;21.00
67714;PMS7003;54505;44.022;20.458;2022-07-29T03:00:12;30.75;29.00;22.00
67714;PMS7003;54505;44.022;20.458;2022-07-29T03:02:39;32.50;29.75;20.50
67714;PMS7003;54505;44.022;20.458;2022-07-29T03:05:06;30.00;29.00;20.75
67714;PMS7003;54505;44.022;20.458;2022-07-29T03:07:33;35.75;32.75;23.00
67714;PMS7003;54505;44.022;20.458;2022-07-29T03:09:59;26.50;25.50;20.00
67714;PMS7003;54505;44.022;20.458;2022-07-29T03:12:25;32.75;31.50;22.50
67714;PMS7003;54505;44.022;20.458;2022-07-29T03:14:51;33.75;31.00;22.50
67714;PMS7003;54505;44.022;20.458;2022-07-29T03:17:17;31.25;30.25;22.50
67714;PMS7003;54505;44.022;20.458;2022-07-29T03:19:43;30.25;30.25;22.50
67714;PMS7003;54505;44.022;20.458;2022-07-29T03:22:09;36.75;30.00;21.50
67714;PMS7003;54505;44.022;20.458;2022-07-29T03:24:35;31.25;30.00;22.00
67714;PMS7003;54505;44.022;20.458;2022-07-29T03:27:01;37.75;33.00;22.25
67714;PMS7003;54505;44.022;20.458;2022-07-29T03:29:27;26.00;25.75;21.25
67714;PMS7003;54505;44.022;20.458;2022-07-29T03:31:53;59.75;48.00;35.00
67714;PMS7003;54505;44.022;20.458;2022-07-29T03:34:18;33.50;31.25;23.25
67714;PMS7003;54505;44.022;20.458;2022-07-29T03:36:44;37.25;33.50;24.25
67714;PMS7003;54505;44.022;20.458;2022-07-29T03:39:10;28.50;28.25;20.25
67714;PMS7003;54505;44.022;20.458;2022-07-29T03:41:37;33.50;32.25;23.25
67714;PMS7003;54505;44.022;20.458;2022-07-29T03:44:05;35.25;31.50;22.00
67714;PMS7003;54505;44.022;20.458;2022-07-29T03:46:30;29.25;29.25;23.00
67714;PMS7003;54505;44.022;20.458;2022-07-29T03:49:00;40.25;33.25;23.00
67714;PMS7003;54505;44.022;20.458;2022-07-29T03:51:26;36.00;32.25;23.00
67714;PMS7003;54505;44.022;20.458;2022-07-29T03:53:52;36.50;32.75;21.50
67714;PMS7003;54505;44.022;20.458;2022-07-29T03:56:18;34.75;32.00;24.00
67714;PMS7003;54505;44.022;20.458;2022-07-29T03:58:46;31.25;30.75;22.25
67714;PMS7003;54505;44.022;20.458;2022-07-29T04:01:12;35.00;31.00;22.25
67714;PMS7003;54505;44.022;20.458;2022-07-29T04:03:38;35.50;32.75;22.25
67714;PMS7003;54505;44.022;20.458;2022-07-29T04:06:05;36.75;31.25;22.00
67714;PMS7003;54505;44.022;20.458;2022-07-29T04:08:31;36.25;33.75;24.25
67714;PMS7003;54505;44.022;20.458;2022-07-29T04:10:57;31.00;30.50;21.75
67714;PMS7003;54505;44.022;20.458;2022-07-29T04:13:22;33.50;30.50;21.75
67714;PMS7003;54505;44.022;20.458;2022-07-29T04:15:48;29.00;29.00;20.50
67714;PMS7003;54505;44.022;20.458;2022-07-29T04:18:13;37.75;34.25;23.00
67714;PMS7003;54505;44.022;20.458;2022-07-29T04:20:39;42.00;34.00;22.75
67714;PMS7003;54505;44.022;20.458;2022-07-29T04:23:05;33.75;32.00;22.75
67714;PMS7003;54505;44.022;20.458;2022-07-29T04:25:30;37.00;33.00;22.25
67714;PMS7003;54505;44.022;20.458;2022-07-29T04:27:56;41.50;34.00;23.25
67714;PMS7003;54505;44.022;20.458;2022-07-29T04:30:28;39.00;34.25;23.25
67714;PMS7003;54505;44.022;20.458;2022-07-29T04:32:54;41.75;36.25;24.00
67714;PMS7003;54505;44.022;20.458;2022-07-29T04:35:20;45.75;36.25;23.25
67714;PMS7003;54505;44.022;20.458;2022-07-29T04:37:45;47.00;35.50;24.00
67714;PMS7003;54505;44.022;20.458;2022-07-29T04:40:11;42.00;36.25;24.00
67714;PMS7003;54505;44.022;20.458;2022-07-29T04:42:37;48.75;38.50;24.50
67714;PMS7003;54505;44.022;20.458;2022-07-29T04:45:03;36.50;32.50;23.00
67714;PMS7003;54505;44.022;20.458;2022-07-29T04:47:28;35.50;32.25;23.00
67714;PMS7003;54505;44.022;20.458;2022-07-29T04:49:54;36.25;32.50;22.25
67714;PMS7003;54505;44.022;20.458;2022-07-29T04:52:21;40.00;34.25;23.00
67714;PMS7003;54505;44.022;20.458;2022-07-29T04:54:47;35.00;31.75;22.00
67714;PMS7003;54505;44.022;20.458;2022-07-29T04:57:13;37.25;32.25;22.25
67714;PMS7003;54505;44.022;20.458;2022-07-29T04:59:38;42.25;34.50;24.00
67714;PMS7003;54505;44.022;20.458;2022-07-29T05:02:04;36.75;33.75;22.75
67714;PMS7003;54505;44.022;20.458;2022-07-29T05:04:29;42.50;36.50;24.25
67714;PMS7003;54505;44.022;20.458;2022-07-29T05:06:55;41.25;35.25;23.00
67714;PMS7003;54505;44.022;20.458;2022-07-29T05:09:20;36.75;32.25;22.50
67714;PMS7003;54505;44.022;20.458;2022-07-29T05:11:46;36.50;32.00;22.25
67714;PMS7003;54505;44.022;20.458;2022-07-29T05:14:11;41.75;34.50;23.00
67714;PMS7003;54505;44.022;20.458;2022-07-29T05:16:37;42.00;36.00;24.25
67714;PMS7003;54505;44.022;20.458;2022-07-29T05:19:04;42.25;34.25;22.75
67714;PMS7003;54505;44.022;20.458;2022-07-29T05:21:30;35.50;32.50;22.00
67714;PMS7003;54505;44.022;20.458;2022-07-29T05:23:55;35.50;32.50;21.75
67714;PMS7003;54505;44.022;20.458;2022-07-29T05:26:21;38.25;33.25;23.00
67714;PMS7003;54505;44.022;20.458;2022-07-29T05:28:46;38.50;35.00;23.75
67714;PMS7003;54505;44.022;20.458;2022-07-29T05:31:12;37.25;32.25;22.75
67714;PMS7003;54505;44.022;20.458;2022-07-29T05:33:40;35.25;31.25;22.00
67714;PMS7003;54505;44.022;20.458;2022-07-29T05:36:06;44.50;37.25;25.50
67714;PMS7003;54505;44.022;20.458;2022-07-29T05:38:32;38.50;35.00;24.25
67714;PMS7003;54505;44.022;20.458;2022-07-29T05:40:58;39.75;34.25;23.75
67714;PMS7003;54505;44.022;20.458;2022-07-29T05:43:25;38.50;32.00;22.00
67714;PMS7003;54505;44.022;20.458;2022-07-29T05:45:50;41.75;34.00;23.00
67714;PMS7003;54505;44.022;20.458;2022-07-29T05:48:16;37.50;33.25;23.75
67714;PMS7003;54505;44.022;20.458;2022-07-29T05:50:42;44.00;37.50;27.00
67714;PMS7003;54505;44.022;20.458;2022-07-29T05:53:07;37.75;33.00;22.25
67714;PMS7003;54505;44.022;20.458;2022-07-29T05:55:33;34.25;31.00;22.00
67714;PMS7003;54505;44.022;20.458;2022-07-29T05:57:59;34.50;31.75;21.25
67714;PMS7003;54505;44.022;20.458;2022-07-29T06:00:24;36.75;32.75;21.75
67714;PMS7003;54505;44.022;20.458;2022-07-29T06:02:50;30.25;29.25;20.00
67714;PMS7003;54505;44.022;20.458;2022-07-29T06:05:15;28.50;28.00;20.00
67714;PMS7003;54505;44.022;20.458;2022-07-29T06:07:41;30.75;29.25;20.25
67714;PMS7003;54505;44.022;20.458;2022-07-29T06:10:07;37.00;32.25;23.75
67714;PMS7003;54505;44.022;20.458;2022-07-29T06:12:33;27.75;25.75;18.00
67714;PMS7003;54505;44.022;20.458;2022-07-29T06:14:58;39.75;33.00;23.50
67714;PMS7003;54505;44.022;20.458;2022-07-29T06:17:24;30.75;28.00;20.50
67714;PMS7003;54505;44.022;20.458;2022-07-29T06:19:50;28.25;26.75;19.25
67714;PMS7003;54505;44.022;20.458;2022-07-29T06:22:16;26.00;26.00;18.00
67714;PMS7003;54505;44.022;20.458;2022-07-29T06:24:42;25.00;23.25;17.25
67714;PMS7003;54505;44.022;20.458;2022-07-29T06:27:11;26.25;23.75;18.00
67714;PMS7003;54505;44.022;20.458;2022-07-29T06:29:37;27.50;24.50;18.00
67714;PMS7003;54505;44.022;20.458;2022-07-29T06:32:03;26.25;24.50;18.75
67714;PMS7003;54505;44.022;20.458;2022-07-29T06:34:28;27.50;25.00;19.50
67714;PMS7003;54505;44.022;20.458;2022-07-29T06:36:54;27.00;24.00;18.25
67714;PMS7003;54505;44.022;20.458;2022-07-29T06:39:20;30.75;27.00;18.75
67714;PMS7003;54505;44.022;20.458;2022-07-29T06:41:49;29.00;27.25;18.25
67714;PMS7003;54505;44.022;20.458;2022-07-29T06:44:15;28.00;25.00;18.75
67714;PMS7003;54505;44.022;20.458;2022-07-29T06:46:41;22.75;22.00;18.00
67714;PMS7003;54505;44.022;20.458;2022-07-29T06:49:07;28.00;27.00;19.00
67714;PMS7003;54505;44.022;20.458;2022-07-29T06:51:33;24.75;24.25;18.00
67714;PMS7003;54505;44.022;20.458;2022-07-29T06:53:59;28.00;27.25;19.25
67714;PMS7003;54505;44.022;20.458;2022-07-29T06:56:25;29.25;27.25;20.00
67714;PMS7003;54505;44.022;20.458;2022-07-29T06:58:51;22.25;22.25;17.00
67714;PMS7003;54505;44.022;20.458;2022-07-29T07:01:17;24.75;24.00;18.25
67714;PMS7003;54505;44.022;20.458;2022-07-29T07:03:43;26.00;24.50;19.50
67714;PMS7003;54505;44.022;20.458;2022-07-29T07:06:08;29.25;28.25;19.25
67714;PMS7003;54505;44.022;20.458;2022-07-29T07:08:34;23.00;22.50;17.50
67714;PMS7003;54505;44.022;20.458;2022-07-29T07:10:59;26.75;26.00;17.75
67714;PMS7003;54505;44.022;20.458;2022-07-29T07:13:25;23.00;23.00;18.00
67714;PMS7003;54505;44.022;20.458;2022-07-29T07:15:51;28.25;26.50;18.00
67714;PMS7003;54505;44.022;20.458;2022-07-29T07:18:17;24.50;24.00;18.25
67714;PMS7003;54505;44.022;20.458;2022-07-29T07:20:43;27.75;26.75;18.00
67714;PMS7003;54505;44.022;20.458;2022-07-29T07:23:09;40.75;34.75;25.00
67714;PMS7003;54505;44.022;20.458;2022-07-29T07:25:35;23.00;23.00;17.00
67714;PMS7003;54505;44.022;20.458;2022-07-29T07:28:00;22.50;22.50;17.00
67714;PMS7003;54505;44.022;20.458;2022-07-29T07:30:26;28.25;27.25;19.75
67714;PMS7003;54505;44.022;20.458;2022-07-29T07:32:52;32.50;29.50;20.50
67714;PMS7003;54505;44.022;20.458;2022-07-29T07:35:18;32.50;29.25;21.00
67714;PMS7003;54505;44.022;20.458;2022-07-29T07:37:44;25.75;25.50;18.25
67714;PMS7003;54505;44.022;20.458;2022-07-29T07:40:09;31.25;29.00;19.50
67714;PMS7003;54505;44.022;20.458;2022-07-29T07:42:37;27.00;26.75;19.00
67714;PMS7003;54505;44.022;20.458;2022-07-29T07:45:02;27.75;27.00;19.00
67714;PMS7003;54505;44.022;20.458;2022-07-29T07:47:28;27.75;26.50;19.00
67714;PMS7003;54505;44.022;20.458;2022-07-29T07:49:54;28.00;26.00;19.75
67714;PMS7003;54505;44.022;20.458;2022-07-29T07:52:20;22.00;22.00;17.00
67714;PMS7003;54505;44.022;20.458;2022-07-29T07:54:46;27.50;26.25;18.50
67714;PMS7003;54505;44.022;20.458;2022-07-29T07:57:12;29.75;27.75;20.00
67714;PMS7003;54505;44.022;20.458;2022-07-29T07:59:38;26.25;25.50;20.00
67714;PMS7003;54505;44.022;20.458;2022-07-29T08:02:04;23.75;23.50;18.00
67714;PMS7003;54505;44.022;20.458;2022-07-29T08:04:30;25.25;24.50;17.25
67714;PMS7003;54505;44.022;20.458;2022-07-29T08:06:56;23.00;23.00;17.75
67714;PMS7003;54505;44.022;20.458;2022-07-29T08:09:22;27.25;25.00;17.00
67714;PMS7003;54505;44.022;20.458;2022-07-29T08:11:47;28.00;26.25;19.00
67714;PMS7003;54505;44.022;20.458;2022-07-29T08:14:13;25.00;25.00;18.00
67714;PMS7003;54505;44.022;20.458;2022-07-29T08:16:39;26.00;26.00;19.00
67714;PMS7003;54505;44.022;20.458;2022-07-29T08:19:05;29.50;26.75;20.00
67714;PMS7003;54505;44.022;20.458;2022-07-29T08:21:31;25.50;25.50;17.75
67714;PMS7003;54505;44.022;20.458;2022-07-29T08:23:57;29.25;25.25;18.50
67714;PMS7003;54505;44.022;20.458;2022-07-29T08:26:41;27.25;25.25;19.00
67714;PMS7003;54505;44.022;20.458;2022-07-29T08:29:07;26.00;24.75;17.75
67714;PMS7003;54505;44.022;20.458;2022-07-29T08:31:32;28.75;25.75;19.00
67714;PMS7003;54505;44.022;20.458;2022-07-29T08:33:58;27.50;25.75;18.00
67714;PMS7003;54505;44.022;20.458;2022-07-29T08:36:25;26.50;25.75;19.00
67714;PMS7003;54505;44.022;20.458;2022-07-29T08:38:50;24.50;24.50;17.00
67714;PMS7003;54505;44.022;20.458;2022-07-29T08:41:17;25.25;24.00;18.00
67714;PMS7003;54505;44.022;20.458;2022-07-29T08:43:44;26.50;26.00;19.00
67714;PMS7003;54505;44.022;20.458;2022-07-29T08:46:10;23.50;23.50;17.00
67714;PMS7003;54505;44.022;20.458;2022-07-29T08:48:35;48.25;39.75;30.25
67714;PMS7003;54505;44.022;20.458;2022-07-29T08:51:01;28.25;26.00;18.50
67714;PMS7003;54505;44.022;20.458;2022-07-29T08:53:27;41.25;35.00;25.25
67714;PMS7003;54505;44.022;20.458;2022-07-29T08:55:54;25.75;24.75;18.00
67714;PMS7003;54505;44.022;20.458;2022-07-29T08:58:19;23.75;23.50;17.00
67714;PMS7003;54505;44.022;20.458;2022-07-29T09:00:47;25.75;25.50;18.00
67714;PMS7003;54505;44.022;20.458;2022-07-29T09:03:17;34.00;30.75;23.50
67714;PMS7003;54505;44.022;20.458;2022-07-29T09:05:44;24.50;23.75;17.00
67714;PMS7003;54505;44.022;20.458;2022-07-29T09:08:10;32.75;29.50;21.25
67714;PMS7003;54505;44.022;20.458;2022-07-29T09:10:36;25.25;24.25;17.00
67714;PMS7003;54505;44.022;20.458;2022-07-29T09:13:01;26.00;24.25;16.50
67714;PMS7003;54505;44.022;20.458;2022-07-29T09:15:28;23.50;23.50;17.00
67714;PMS7003;54505;44.022;20.458;2022-07-29T09:17:54;24.00;23.00;18.25
67714;PMS7003;54505;44.022;20.458;2022-07-29T09:20:22;34.00;26.75;21.00
67714;PMS7003;54505;44.022;20.458;2022-07-29T09:22:48;28.25;26.25;18.75
67714;PMS7003;54505;44.022;20.458;2022-07-29T09:25:36;33.00;29.25;20.75
67714;PMS7003;54505;44.022;20.458;2022-07-29T09:28:07;25.50;24.50;17.75
67714;PMS7003;54505;44.022;20.458;2022-07-29T09:30:33;26.75;26.00;18.50
67714;PMS7003;54505;44.022;20.458;2022-07-29T09:33:00;27.50;25.75;18.75
67714;PMS7003;54505;44.022;20.458;2022-07-29T09:35:26;28.00;27.00;18.75
67714;PMS7003;54505;44.022;20.458;2022-07-29T09:37:53;27.25;23.50;17.50
67714;PMS7003;54505;44.022;20.458;2022-07-29T09:40:20;25.75;25.25;17.25
67714;PMS7003;54505;44.022;20.458;2022-07-29T09:42:46;26.75;25.75;18.75
67714;PMS7003;54505;44.022;20.458;2022-07-29T09:45:12;24.50;24.50;18.00
67714;PMS7003;54505;44.022;20.458;2022-07-29T09:47:42;24.50;24.50;18.25
67714;PMS7003;54505;44.022;20.458;2022-07-29T09:50:10;24.00;22.50;17.00
67714;PMS7003;54505;44.022;20.458;2022-07-29T09:52:44;26.00;23.25;17.00
67714;PMS7003;54505;44.022;20.458;2022-07-29T09:55:09;25.25;22.00;16.00
67714;PMS7003;54505;44.022;20.458;2022-07-29T09:57:35;27.50;24.25;18.00
67714;PMS7003;54505;44.022;20.458;2022-07-29T10:00:05;24.25;24.25;18.25
67714;PMS7003;54505;44.022;20.458;2022-07-29T10:02:35;24.25;23.00;18.00
67714;PMS7003;54505;44.022;20.458;2022-07-29T10:05:01;23.50;23.50;17.25
67714;PMS7003;54505;44.022;20.458;2022-07-29T10:07:50;23.75;23.75;17.75
67714;PMS7003;54505;44.022;20.458;2022-07-29T10:10:24;28.50;26.75;19.75
67714;PMS7003;54505;44.022;20.458;2022-07-29T10:12:53;27.50;26.50;18.75
67714;PMS7003;54505;44.022;20.458;2022-07-29T10:15:20;25.25;24.25;17.25
67714;PMS7003;54505;44.022;20.458;2022-07-29T10:17:46;24.50;24.50;17.50
67714;PMS7003;54505;44.022;20.458;2022-07-29T10:20:13;24.50;24.50;18.25
67714;PMS7003;54505;44.022;20.458;2022-07-29T10:22:39;27.50;26.25;18.75
67714;PMS7003;54505;44.022;20.458;2022-07-29T10:25:05;25.75;25.25;18.75
67714;PMS7003;54505;44.022;20.458;2022-07-29T10:27:31;23.25;23.25;17.00
67714;PMS7003;54505;44.022;20.458;2022-07-29T10:29:56;24.50;24.50;17.75
67714;PMS7003;54505;44.022;20.458;2022-07-29T10:32:26;28.75;27.50;19.50
67714;PMS7003;54505;44.022;20.458;2022-07-29T10:37:22;26.25;25.00;17.75
67714;PMS7003;54505;44.022;20.458;2022-07-29T10:40:11;21.75;21.75;18.25
67714;PMS7003;54505;44.022;20.458;2022-07-29T10:43:00;28.75;26.75;19.25
67714;PMS7003;54505;44.022;20.458;2022-07-29T10:45:31;28.00;26.50;19.75
67714;PMS7003;54505;44.022;20.458;2022-07-29T10:48:05;27.25;25.75;18.75
67714;PMS7003;54505;44.022;20.458;2022-07-29T10:53:15;26.75;26.00;19.50
67714;PMS7003;54505;44.022;20.458;2022-07-29T10:55:41;31.00;28.00;19.75
67714;PMS7003;54505;44.022;20.458;2022-07-29T11:00:38;24.25;24.25;18.25
67714;PMS7003;54505;44.022;20.458;2022-07-29T11:03:04;26.00;25.25;17.50
67714;PMS7003;54505;44.022;20.458;2022-07-29T11:05:30;28.50;27.75;18.00
67714;PMS7003;54505;44.022;20.458;2022-07-29T11:08:16;18.75;18.75;16.25
67714;PMS7003;54505;44.022;20.458;2022-07-29T11:10:43;24.25;23.50;16.75
67714;PMS7003;54505;44.022;20.458;2022-07-29T11:13:08;33.75;29.75;21.00
67714;PMS7003;54505;44.022;20.458;2022-07-29T11:18:19;24.75;24.00;17.75
67714;PMS7003;54505;44.022;20.458;2022-07-29T11:20:46;21.50;21.50;16.00
67714;PMS7003;54505;44.022;20.458;2022-07-29T11:25:45;27.25;25.75;18.75
67714;PMS7003;54505;44.022;20.458;2022-07-29T11:28:15;23.75;22.50;17.75
67714;PMS7003;54505;44.022;20.458;2022-07-29T11:30:48;27.00;26.00;17.75
67714;PMS7003;54505;44.022;20.458;2022-07-29T11:33:31;24.00;24.00;18.75
67714;PMS7003;54505;44.022;20.458;2022-07-29T11:36:10;20.75;20.75;16.75
67714;PMS7003;54505;44.022;20.458;2022-07-29T11:38:36;14.50;14.50;10.25
67714;PMS7003;54505;44.022;20.458;2022-07-29T11:43:50;21.50;21.50;14.75
67714;PMS7003;54505;44.022;20.458;2022-07-29T11:49:03;22.00;22.00;15.50
67714;PMS7003;54505;44.022;20.458;2022-07-29T11:51:29;24.75;22.75;17.75
67714;PMS7003;54505;44.022;20.458;2022-07-29T11:53:55;24.75;23.00;17.00
67714;PMS7003;54505;44.022;20.458;2022-07-29T11:56:21;23.00;21.75;16.75
67714;PMS7003;54505;44.022;20.458;2022-07-29T11:58:48;22.00;20.50;15.50
67714;PMS7003;54505;44.022;20.458;2022-07-29T12:01:16;28.75;26.50;19.25
67714;PMS7003;54505;44.022;20.458;2022-07-29T12:03:42;22.75;21.50;16.00
67714;PMS7003;54505;44.022;20.458;2022-07-29T12:06:14;15.25;15.25;11.50
67714;PMS7003;54505;44.022;20.458;2022-07-29T12:08:40;21.50;21.50;16.75
67714;PMS7003;54505;44.022;20.458;2022-07-29T12:11:14;21.00;18.75;14.00
67714;PMS7003;54505;44.022;20.458;2022-07-29T12:13:40;18.75;18.75;14.00
67714;PMS7003;54505;44.022;20.458;2022-07-29T12:16:05;15.75;15.75;13.75
67714;PMS7003;54505;44.022;20.458;2022-07-29T12:18:31;12.75;12.75;10.00
67714;PMS7003;54505;44.022;20.458;2022-07-29T12:21:01;11.50;11.50;10.00
67714;PMS7003;54505;44.022;20.458;2022-07-29T12:23:30;22.50;21.50;16.75
67714;PMS7003;54505;44.022;20.458;2022-07-29T12:25:57;14.00;14.00;11.75
67714;PMS7003;54505;44.022;20.458;2022-07-29T12:28:22;19.50;17.75;14.00
67714;PMS7003;54505;44.022;20.458;2022-07-29T12:30:48;16.25;16.25;13.50
67714;PMS7003;54505;44.022;20.458;2022-07-29T12:35:42;17.75;17.00;13.00
67714;PMS7003;54505;44.022;20.458;2022-07-29T12:38:09;12.75;12.75;10.75
67714;PMS7003;54505;44.022;20.458;2022-07-29T12:40:34;18.75;18.75;14.25
67714;PMS7003;54505;44.022;20.458;2022-07-29T12:45:39;18.25;18.25;14.75
67714;PMS7003;54505;44.022;20.458;2022-07-29T12:48:05;14.75;14.75;12.75
67714;PMS7003;54505;44.022;20.458;2022-07-29T12:50:34;15.25;15.25;12.50
67714;PMS7003;54505;44.022;20.458;2022-07-29T12:53:09;17.00;15.75;12.25
67714;PMS7003;54505;44.022;20.458;2022-07-29T12:55:43;16.50;16.25;11.75
67714;PMS7003;54505;44.022;20.458;2022-07-29T12:58:09;21.75;19.75;14.25
67714;PMS7003;54505;44.022;20.458;2022-07-29T13:00:35;19.25;19.25;14.75
67714;PMS7003;54505;44.022;20.458;2022-07-29T13:03:00;18.75;18.75;14.25
67714;PMS7003;54505;44.022;20.458;2022-07-29T13:05:44;15.00;15.00;11.00
67714;PMS7003;54505;44.022;20.458;2022-07-29T13:08:12;13.25;13.25;9.50
67714;PMS7003;54505;44.022;20.458;2022-07-29T13:10:38;18.75;18.75;15.00
67714;PMS7003;54505;44.022;20.458;2022-07-29T13:13:10;18.50;17.00;13.50
67714;PMS7003;54505;44.022;20.458;2022-07-29T13:15:37;15.00;14.25;13.00
67714;PMS7003;54505;44.022;20.458;2022-07-29T13:18:04;18.50;16.00;13.75
67714;PMS7003;54505;44.022;20.458;2022-07-29T13:20:29;24.00;20.25;16.00
67714;PMS7003;54505;44.022;20.458;2022-07-29T13:22:58;18.75;17.75;13.00
67714;PMS7003;54505;44.022;20.458;2022-07-29T13:25:29;17.75;16.00;13.75
67714;PMS7003;54505;44.022;20.458;2022-07-29T13:27:54;16.25;16.25;12.50
67714;PMS7003;54505;44.022;20.458;2022-07-29T13:30:21;16.75;16.75;13.75
67714;PMS7003;54505;44.022;20.458;2022-07-29T13:32:47;14.75;14.75;12.00
67714;PMS7003;54505;44.022;20.458;2022-07-29T13:35:12;18.75;17.00;13.25
67714;PMS7003;54505;44.022;20.458;2022-07-29T13:37:39;15.00;15.00;12.25
67714;PMS7003;54505;44.022;20.458;2022-07-29T13:40:05;18.25;18.25;14.50
67714;PMS7003;54505;44.022;20.458;2022-07-29T13:42:33;19.00;19.00;13.50
67714;PMS7003;54505;44.022;20.458;2022-07-29T13:44:59;17.75;17.75;14.00
67714;PMS7003;54505;44.022;20.458;2022-07-29T13:47:25;17.25;16.50;12.75
67714;PMS7003;54505;44.022;20.458;2022-07-29T13:49:51;20.75;20.00;14.00
67714;PMS7003;54505;44.022;20.458;2022-07-29T13:52:17;24.75;21.75;17.00
67714;PMS7003;54505;44.022;20.458;2022-07-29T13:54:43;22.75;22.75;17.00
67714;PMS7003;54505;44.022;20.458;2022-07-29T13:57:09;17.50;17.50;14.00
67714;PMS7003;54505;44.022;20.458;2022-07-29T13:59:38;17.75;17.75;14.00
67714;PMS7003;54505;44.022;20.458;2022-07-29T14:02:04;16.00;16.00;14.00
67714;PMS7003;54505;44.022;20.458;2022-07-29T14:04:30;20.25;18.75;14.00
67714;PMS7003;54505;44.022;20.458;2022-07-29T14:06:56;24.75;24.25;18.25
67714;PMS7003;54505;44.022;20.458;2022-07-29T14:09:22;18.75;18.75;16.25
67714;PMS7003;54505;44.022;20.458;2022-07-29T14:11:47;28.00;25.75;19.00
67714;PMS7003;54505;44.022;20.458;2022-07-29T14:14:15;21.50;21.50;16.00
67714;PMS7003;54505;44.022;20.458;2022-07-29T14:16:41;15.25;15.25;13.50